Cape Romanzof, Alaska
Current Conditions -  °F | °C
As of 4:32 PM on Thursday 27 Nov 2014 (Local Time) from PACZ Reporting Station
Freezing Rain Freezing Rain  
Wind Chill: 17°   Ceiling: 400
Heat Index: 32°   Visibility: 0.5mi
Dew Point: 32°   Wind: 32mph
Humidity: 100%   Direction: 120°ESE
Pressure: 29.76"   Gusts: 40mph
Location:  61.78°N, 166.04°W
Report Text: PACZ 280132Z AUTO 12028G35KT 1/2SM -FZRA FZFG BKN004 BKN037 00/00 A2976 RMK AO2 SLP084
Loading
Personal Weather Stations






























Interactive Weather Map New forecast layout! Learn more

10-Day Weather Forecast

Advertisements
Track Severe Weather on mobile